Time;durP1;ratioP1;P1;durP2;ratioP2;P2;SDS_P1;SDS_P2;PMS_P1;PMS_P2;Temp;Humidity;BMP_temperature;BMP_pressure;BME280_temperature;BME280_humidity;BME280_pressure;Samples;Min_cycle;Max_cycle;Signal;HPM_P1;HPM_P2
2022/10/12 00:00:33;;;;;;;14.90;9.02;;;7.90;99.90;;;;;;5091636;28;20062;-76
2022/10/12 00:02:58;;;;;;;21.95;9.75;;;7.90;99.90;;;;;;5089591;28;20094;-76
2022/10/12 00:05:24;;;;;;;18.77;9.05;;;7.90;99.90;;;;;;5091237;28;20050;-76
2022/10/12 00:07:49;;;;;;;16.88;8.63;;;7.90;99.90;;;;;;5090753;28;20040;-77
2022/10/12 00:10:16;;;;;;;11.38;7.57;;;7.90;99.90;;;;;;5090805;28;20055;-75
2022/10/12 00:12:42;;;;;;;11.73;8.50;;;7.90;99.90;;;;;;5091705;28;20064;-78
2022/10/12 00:15:08;;;;;;;22.13;9.75;;;7.90;99.90;;;;;;5089744;28;20033;-75
2022/10/12 00:17:33;;;;;;;13.27;7.88;;;7.90;99.90;;;;;;5089477;28;20008;-76
2022/10/12 00:19:59;;;;;;;12.70;7.57;;;7.90;99.90;;;;;;5087373;28;20047;-76
2022/10/12 00:22:24;;;;;;;21.00;8.57;;;7.90;99.90;;;;;;5072022;28;20028;-76
2022/10/12 00:24:52;;;;;;;14.52;8.02;;;7.80;99.90;;;;;;5073309;28;20044;-74
2022/10/12 00:27:18;;;;;;;18.75;7.97;;;7.90;99.90;;;;;;5073051;28;20027;-76
2022/10/12 00:29:43;;;;;;;19.90;8.48;;;7.90;99.90;;;;;;5072654;28;20036;-74
2022/10/12 00:32:09;;;;;;;12.30;7.68;;;7.80;99.90;;;;;;5073687;28;20008;-74
2022/10/12 00:34:40;;;;;;;17.05;7.85;;;7.80;99.90;;;;;;5073242;28;20448;-75
2022/10/12 00:37:10;;;;;;;15.57;7.63;;;7.80;99.90;;;;;;5072144;28;20081;-75
2022/10/12 00:39:35;;;;;;;11.48;7.82;;;7.80;99.90;;;;;;5072852;28;20119;-75
2022/10/12 00:42:01;;;;;;;10.90;7.45;;;7.70;99.90;;;;;;5072472;28;20125;-75
2022/10/12 00:44:53;;;;;;;20.10;7.80;;;7.70;99.90;;;;;;5071911;28;20508;-75
2022/10/12 00:47:28;;;;;;;16.20;7.65;;;7.60;99.90;;;;;;5068461;28;20029;-75
2022/10/12 00:50:24;;;;;;;17.85;8.13;;;7.60;99.90;;;;;;5073392;28;20029;-77
2022/10/12 00:53:04;;;;;;;9.73;7.85;;;7.60;99.90;;;;;;5072878;28;20027;-75
2022/10/12 00:55:35;;;;;;;11.80;7.18;;;7.50;99.90;;;;;;5073005;28;20028;-76
2022/10/12 00:58:03;;;;;;;13.85;6.95;;;7.50;99.90;;;;;;5072830;28;20032;-76
2022/10/12 01:00:29;;;;;;;10.45;6.75;;;7.50;99.90;;;;;;5072103;28;20037;-76
2022/10/12 01:02:55;;;;;;;12.27;6.90;;;7.50;99.90;;;;;;5072112;28;20521;-77
2022/10/12 01:05:22;;;;;;;11.88;6.65;;;7.40;99.90;;;;;;5072541;28;20031;-77
2022/10/12 01:07:48;;;;;;;8.75;7.05;;;7.40;99.90;;;;;;5071896;28;20070;-77
2022/10/12 01:10:13;;;;;;;14.48;6.60;;;7.40;99.90;;;;;;5072636;28;20024;-76
2022/10/12 01:12:42;;;;;;;9.70;6.88;;;7.40;99.90;;;;;;5071527;28;20024;-76
2022/10/12 01:15:09;;;;;;;14.77;7.05;;;7.40;99.90;;;;;;5071928;28;20396;-77
2022/10/12 01:17:58;;;;;;;13.63;7.40;;;7.40;99.90;;;;;;5071317;28;20021;-76
2022/10/12 01:20:31;;;;;;;10.13;6.13;;;7.40;99.90;;;;;;5060497;28;20017;-77
2022/10/12 01:23:27;;;;;;;8.93;6.30;;;7.30;99.90;;;;;;5072231;28;20077;-77
2022/10/12 01:26:11;;;;;;;10.80;6.45;;;7.30;99.90;;;;;;5071130;28;20100;-76
2022/10/12 01:29:14;;;;;;;11.55;6.82;;;7.30;99.90;;;;;;5071531;28;20024;-77
2022/10/12 01:31:50;;;;;;;10.15;6.30;;;7.20;99.90;;;;;;5070715;28;20056;-76
2022/10/12 01:34:33;;;;;;;9.68;6.65;;;7.20;99.90;;;;;;5072615;28;20128;-77
2022/10/12 01:37:30;;;;;;;11.18;7.20;;;7.20;99.90;;;;;;5072182;28;20031;-77
2022/10/12 01:39:59;;;;;;;8.60;5.93;;;7.10;99.90;;;;;;5063415;28;20044;-76
2022/10/12 01:42:36;;;;;;;9.68;6.55;;;7.10;99.90;;;;;;5071070;28;20059;-76
2022/10/12 01:45:10;;;;;;;11.80;6.32;;;7.10;99.90;;;;;;5071927;28;20033;-77
2022/10/12 01:47:38;;;;;;;11.63;6.25;;;7.00;99.90;;;;;;5070419;28;20543;-77
2022/10/12 01:50:09;;;;;;;12.05;6.32;;;7.00;99.90;;;;;;5071628;28;20029;-77
2022/10/12 01:52:44;;;;;;;;;;;6.90;99.90;;;;;;5056948;28;20037;-77
2022/10/12 01:55:27;;;;;;;11.88;6.07;;;6.90;99.90;;;;;;5071386;28;19957;-76
2022/10/12 01:58:19;;;;;;;11.05;5.72;;;6.90;99.90;;;;;;5075154;28;20063;-77
2022/10/12 02:00:59;;;;;;;9.05;5.95;;;6.90;99.90;;;;;;5069106;28;20110;-76
2022/10/12 02:03:37;;;;;;;11.32;7.05;;;6.80;99.90;;;;;;5060986;28;20055;-76
2022/10/12 02:06:07;;;;;;;10.38;5.95;;;6.80;99.90;;;;;;5075482;28;20035;-76
2022/10/12 02:08:49;;;;;;;10.20;6.05;;;6.80;99.90;;;;;;5074132;28;20496;-77
2022/10/12 02:11:17;;;;;;;9.25;5.95;;;6.80;99.90;;;;;;5075867;28;20039;-76
2022/10/12 02:14:39;;;;;;;9.05;5.55;;;6.70;99.90;;;;;;5073776;28;20495;-77
2022/10/12 02:17:09;;;;;;;9.45;5.90;;;6.80;99.90;;;;;;4993854;28;20042;-76
2022/10/12 02:19:45;;;;;;;5.75;5.15;;;6.80;99.90;;;;;;5072690;28;20024;-76
2022/10/12 02:22:14;;;;;;;11.75;5.72;;;6.80;99.90;;;;;;5074190;28;20115;-76
2022/10/12 02:24:44;;;;;;;12.15;6.13;;;6.80;99.90;;;;;;5074464;28;20044;-76
2022/10/12 02:27:13;;;;;;;10.18;5.82;;;6.80;99.90;;;;;;5074589;28;20580;-77
2022/10/12 02:29:41;;;;;;;15.68;6.15;;;6.80;99.90;;;;;;5073482;28;20029;-76
2022/10/12 02:32:23;;;;;;;8.32;5.35;;;6.80;99.90;;;;;;5074544;28;20400;-76
2022/10/12 02:35:06;;;;;;;9.27;5.50;;;6.80;99.90;;;;;;5073434;28;20492;-76
2022/10/12 02:37:40;;;;;;;16.05;5.72;;;6.90;99.90;;;;;;5074276;28;20051;-76
2022/10/12 02:40:15;;;;;;;15.00;5.60;;;6.90;99.90;;;;;;5074207;28;20107;-78
2022/10/12 02:42:49;;;;;;;17.00;6.50;;;6.90;99.90;;;;;;5073044;28;20075;-76
2022/10/12 02:45:17;;;;;;;12.57;6.00;;;6.90;99.90;;;;;;5074063;28;20024;-76
2022/10/12 02:47:46;;;;;;;16.38;6.43;;;7.00;99.90;;;;;;5073732;28;20029;-76
2022/10/12 02:50:14;;;;;;;14.57;6.80;;;7.10;99.90;;;;;;5073064;28;20472;-77
2022/10/12 02:52:40;;;;;;;14.50;6.20;;;7.10;99.90;;;;;;5073819;28;20032;-76
2022/10/12 02:55:06;;;;;;;19.77;7.43;;;7.10;99.90;;;;;;5073693;28;20601;-77
2022/10/12 02:57:31;;;;;;;12.25;6.43;;;7.10;99.90;;;;;;5072920;28;20020;-76
2022/10/12 02:59:57;;;;;;;17.15;6.25;;;7.10;99.90;;;;;;5073956;28;20025;-76
2022/10/12 03:02:22;;;;;;;15.90;6.13;;;7.10;99.90;;;;;;5073569;28;20056;-77
2022/10/12 03:04:48;;;;;;;16.38;6.78;;;7.10;99.90;;;;;;5072864;28;20028;-76
2022/10/12 03:07:13;;;;;;;16.75;6.60;;;7.10;99.90;;;;;;5072706;28;20043;-77
2022/10/12 03:09:39;;;;;;;16.55;6.43;;;7.10;99.90;;;;;;5073381;28;20025;-76
2022/10/12 03:12:04;;;;;;;16.63;6.75;;;7.10;99.90;;;;;;5073172;28;20039;-77
2022/10/12 03:14:31;;;;;;;11.77;5.68;;;7.10;99.90;;;;;;5073740;28;20503;-76
2022/10/12 03:16:57;;;;;;;10.10;6.38;;;7.00;99.90;;;;;;5073157;28;20464;-76
2022/10/12 03:19:23;;;;;;;16.15;6.75;;;7.00;99.90;;;;;;5073386;28;20020;-77
2022/10/12 03:21:48;;;;;;;12.68;6.43;;;7.00;99.90;;;;;;5074404;28;20135;-77
2022/10/12 03:24:15;;;;;;;10.98;6.28;;;7.00;99.90;;;;;;5073928;28;20068;-77
2022/10/12 03:26:43;;;;;;;12.13;6.25;;;7.00;99.90;;;;;;5074103;28;20107;-75
2022/10/12 03:29:14;;;;;;;16.98;7.78;;;7.00;99.90;;;;;;5074675;28;20028;-77
2022/10/12 03:31:39;;;;;;;15.05;6.10;;;7.00;99.90;;;;;;5059303;28;20074;-77
2022/10/12 03:34:05;;;;;;;18.67;6.95;;;7.00;99.90;;;;;;5073216;28;20400;-77
2022/10/12 03:36:31;;;;;;;15.65;6.65;;;7.00;99.90;;;;;;5072747;28;20418;-74
2022/10/12 03:38:56;;;;;;;17.13;6.60;;;7.00;99.90;;;;;;5072428;28;20031;-75
2022/10/12 03:41:22;;;;;;;16.73;6.35;;;7.00;99.90;;;;;;5073149;28;20027;-75
2022/10/12 03:43:47;;;;;;;12.32;6.32;;;7.00;99.90;;;;;;5073477;28;20025;-75
2022/10/12 03:46:13;;;;;;;12.77;6.30;;;7.00;99.90;;;;;;5072979;28;20074;-77
2022/10/12 03:48:39;;;;;;;20.42;6.25;;;7.00;99.90;;;;;;5072612;28;20504;-75
2022/10/12 03:51:05;;;;;;;12.05;6.03;;;7.00;99.90;;;;;;5072840;28;20033;-75
2022/10/12 03:53:31;;;;;;;13.88;6.20;;;7.00;99.90;;;;;;5071426;28;20036;-75
2022/10/12 03:55:56;;;;;;;14.18;5.80;;;7.00;99.90;;;;;;5072755;28;20032;-74
2022/10/12 03:58:22;;;;;;;13.50;6.15;;;7.00;99.90;;;;;;5072629;28;20107;-74
2022/10/12 04:00:52;;;;;;;18.15;6.78;;;7.00;99.90;;;;;;5071777;28;20108;-75
2022/10/12 04:03:17;;;;;;;15.80;6.80;;;7.00;99.90;;;;;;5072423;28;20054;-77
2022/10/12 04:05:43;;;;;;;19.42;6.75;;;7.00;99.90;;;;;;5072113;28;20405;-77
2022/10/12 04:08:08;;;;;;;16.70;7.15;;;7.00;99.90;;;;;;5071673;28;20024;-74
2022/10/12 04:10:34;;;;;;;16.63;6.97;;;7.00;99.90;;;;;;5072045;28;20021;-75
2022/10/12 04:13:00;;;;;;;19.67;6.35;;;7.00;99.90;;;;;;5073901;28;20029;-75
2022/10/12 04:15:25;;;;;;;22.00;6.68;;;7.00;99.90;;;;;;5077714;28;20032;-76
2022/10/12 04:17:51;;;;;;;11.05;6.28;;;7.00;99.90;;;;;;5086785;28;20387;-77
2022/10/12 04:20:17;;;;;;;14.32;6.65;;;7.00;99.90;;;;;;5072746;28;20032;-77
2022/10/12 04:22:43;;;;;;;23.23;7.20;;;7.00;99.90;;;;;;5072090;28;20398;-76
2022/10/12 04:25:10;;;;;;;16.27;6.93;;;7.00;99.90;;;;;;5072134;28;20412;-75
2022/10/12 04:27:35;;;;;;;15.05;6.38;;;6.90;99.90;;;;;;5070675;28;20043;-76
2022/10/12 04:30:02;;;;;;;15.65;6.93;;;6.90;99.90;;;;;;5058850;28;20028;-76
2022/10/12 04:32:29;;;;;;;14.57;6.30;;;6.90;99.90;;;;;;5071953;28;20028;-74
2022/10/12 04:34:54;;;;;;;14.98;6.82;;;6.80;99.90;;;;;;5071308;28;20037;-75
2022/10/12 04:37:20;;;;;;;14.82;6.50;;;6.80;99.90;;;;;;5072062;28;20028;-75
2022/10/12 04:39:45;;;;;;;13.07;5.78;;;6.70;99.90;;;;;;5071636;28;20029;-74
2022/10/12 04:42:11;;;;;;;11.30;5.53;;;6.70;99.90;;;;;;5071561;28;20013;-75
2022/10/12 04:44:36;;;;;;;15.70;6.28;;;6.70;99.90;;;;;;5071817;28;20083;-76
2022/10/12 04:47:02;;;;;;;11.60;6.45;;;6.60;99.90;;;;;;5072000;28;20029;-77
2022/10/12 04:49:28;;;;;;;13.25;6.15;;;6.60;99.90;;;;;;5071065;28;20070;-75
2022/10/12 04:51:53;;;;;;;15.20;6.25;;;6.60;99.90;;;;;;5071756;28;20417;-76
2022/10/12 04:54:19;;;;;;;12.85;6.13;;;6.60;99.90;;;;;;5071824;28;20032;-76
2022/10/12 04:56:44;;;;;;;15.90;6.50;;;6.60;99.90;;;;;;5070997;28;20035;-75
2022/10/12 04:59:10;;;;;;;18.13;6.95;;;6.60;99.90;;;;;;5071975;28;20077;-75
2022/10/12 05:01:38;;;;;;;19.10;8.00;;;6.60;99.90;;;;;;5071400;28;20051;-76
2022/10/12 05:04:04;;;;;;;18.60;6.90;;;6.50;99.90;;;;;;5071267;28;20048;-76
2022/10/12 05:06:29;;;;;;;14.40;6.70;;;6.50;99.90;;;;;;5071543;28;20131;-76
2022/10/12 05:08:55;;;;;;;20.35;7.22;;;6.60;99.90;;;;;;5071476;28;20024;-76
2022/10/12 05:11:21;;;;;;;15.48;6.85;;;6.50;99.90;;;;;;5071304;28;20021;-76
2022/10/12 05:13:46;;;;;;;16.10;7.72;;;6.50;99.90;;;;;;5071544;28;20033;-76
2022/10/12 05:16:12;;;;;;;15.23;7.28;;;6.50;99.90;;;;;;5071731;28;20460;-76
2022/10/12 05:18:37;;;;;;;18.90;6.72;;;6.60;99.90;;;;;;5070831;28;20086;-76
2022/10/12 05:21:03;;;;;;;24.63;7.18;;;6.60;99.90;;;;;;5071634;28;20032;-76
2022/10/12 05:23:28;;;;;;;26.15;7.15;;;6.60;99.90;;;;;;5071276;28;20023;-76
2022/10/12 05:25:55;;;;;;;29.90;8.30;;;6.60;99.90;;;;;;5070794;28;20059;-76
2022/10/12 05:28:24;;;;;;;37.42;9.60;;;6.70;99.90;;;;;;5071780;28;20013;-76
2022/10/12 05:30:51;;;;;;;25.90;8.13;;;6.70;99.90;;;;;;5071843;28;20068;-77
2022/10/12 05:33:16;;;;;;;23.15;8.60;;;6.70;99.90;;;;;;5075211;28;20521;-76
2022/10/12 05:35:43;;;;;;;17.85;8.48;;;6.80;99.90;;;;;;5075024;28;20024;-75
2022/10/12 05:38:09;;;;;;;21.58;8.23;;;6.80;99.90;;;;;;5074522;28;20468;-76
2022/10/12 05:40:34;;;;;;;19.30;8.13;;;6.80;99.90;;;;;;5074826;28;20041;-76
2022/10/12 05:43:00;;;;;;;14.85;8.00;;;6.90;99.90;;;;;;5074991;28;20024;-76
2022/10/12 05:45:25;;;;;;;31.38;9.63;;;6.90;99.90;;;;;;5074111;28;20033;-76
2022/10/12 05:47:51;;;;;;;17.40;7.45;;;6.90;99.90;;;;;;5074625;28;20074;-76
2022/10/12 05:50:16;;;;;;;20.58;8.32;;;6.80;99.90;;;;;;5074428;28;20059;-76
2022/10/12 05:52:43;;;;;;;14.55;7.43;;;6.90;99.90;;;;;;5074163;28;20368;-75
2022/10/12 05:55:11;;;;;;;12.63;8.35;;;6.80;99.90;;;;;;5074686;28;20064;-76
2022/10/12 05:57:37;;;;;;;18.48;8.32;;;6.80;99.90;;;;;;5074309;28;20361;-76
2022/10/12 06:00:04;;;;;;;21.95;8.88;;;6.80;99.90;;;;;;5073861;28;20031;-76
2022/10/12 06:02:30;;;;;;;15.95;9.23;;;6.80;99.90;;;;;;5054445;28;20100;-76
2022/10/12 06:04:55;;;;;;;18.15;9.65;;;6.70;99.90;;;;;;5063349;28;20469;-75
2022/10/12 06:07:21;;;;;;;24.83;9.23;;;6.80;99.90;;;;;;5056012;28;20469;-76
2022/10/12 06:09:47;;;;;;;23.27;9.48;;;6.70;99.90;;;;;;5074747;28;20702;-76
2022/10/12 06:12:13;;;;;;;19.90;8.70;;;6.70;99.90;;;;;;5074771;28;20024;-77
2022/10/12 06:14:39;;;;;;;24.70;9.55;;;6.70;99.90;;;;;;5071442;28;20482;-76
2022/10/12 06:17:05;;;;;;;18.70;9.55;;;6.70;99.90;;;;;;5072246;28;20025;-76
2022/10/12 06:19:30;;;;;;;21.45;9.07;;;6.60;99.90;;;;;;5055782;28;20036;-77
2022/10/12 06:21:56;;;;;;;16.48;9.07;;;6.60;99.90;;;;;;5054034;28;20013;-77
2022/10/12 06:24:21;;;;;;;13.75;8.88;;;6.70;99.90;;;;;;5053985;28;20061;-76
2022/10/12 06:26:47;;;;;;;18.70;9.15;;;6.60;99.90;;;;;;5053869;28;20043;-77
2022/10/12 06:29:13;;;;;;;25.17;9.55;;;6.60;99.90;;;;;;5053787;28;20024;-76
2022/10/12 06:31:38;;;;;;;23.05;10.52;;;6.60;99.90;;;;;;5053937;28;20025;-76
2022/10/12 06:34:04;;;;;;;38.95;12.73;;;6.60;99.90;;;;;;5053095;28;20033;-76
2022/10/12 06:36:30;;;;;;;32.70;11.52;;;6.60;99.90;;;;;;5053758;28;20439;-75
2022/10/12 06:38:55;;;;;;;28.35;10.38;;;6.60;99.90;;;;;;5054327;28;20029;-76
2022/10/12 06:41:21;;;;;;;25.17;10.38;;;6.60;99.90;;;;;;5053115;28;20045;-76
2022/10/12 06:43:46;;;;;;;20.30;10.43;;;6.60;99.90;;;;;;5052387;28;20103;-76
2022/10/12 06:46:12;;;;;;;34.80;10.00;;;6.60;99.90;;;;;;5067447;28;20028;-76
2022/10/12 06:48:37;;;;;;;38.35;10.50;;;6.70;99.90;;;;;;5072191;28;20468;-76
2022/10/12 06:51:03;;;;;;;20.48;10.23;;;6.70;99.90;;;;;;5062109;28;20017;-76
2022/10/12 06:53:31;;;;;;;14.05;7.90;;;6.70;99.90;;;;;;5057062;28;20024;-76
2022/10/12 06:55:57;;;;;;;15.10;9.43;;;6.80;99.90;;;;;;5073305;28;20033;-76
2022/10/12 06:58:23;;;;;;;22.58;10.10;;;6.90;99.90;;;;;;5072029;28;20475;-76
2022/10/12 07:00:48;;;;;;;18.10;8.98;;;7.00;99.90;;;;;;5070453;28;20055;-76
2022/10/12 07:03:16;;;;;;;25.65;9.45;;;7.00;99.90;;;;;;5070632;28;20036;-75
2022/10/12 07:05:42;;;;;;;18.73;10.18;;;7.20;99.90;;;;;;5067842;28;20039;-76
2022/10/12 07:08:07;;;;;;;19.58;9.73;;;7.30;99.90;;;;;;5073608;28;20103;-75
2022/10/12 07:10:33;;;;;;;12.15;9.15;;;7.30;99.90;;;;;;5071414;28;20029;-76
2022/10/12 07:12:58;;;;;;;21.52;9.35;;;7.40;99.90;;;;;;5069256;28;20013;-76
2022/10/12 07:15:24;;;;;;;18.38;9.25;;;7.50;99.90;;;;;;5062095;28;20036;-76
2022/10/12 07:17:50;;;;;;;18.73;9.82;;;7.70;99.90;;;;;;5052457;28;20050;-76
2022/10/12 07:20:15;;;;;;;18.65;10.07;;;7.80;99.90;;;;;;5055718;28;20086;-74
2022/10/12 07:22:41;;;;;;;25.65;12.48;;;8.00;99.90;;;;;;5068041;28;20054;-73
2022/10/12 07:25:09;;;;;;;16.77;10.57;;;8.10;99.90;;;;;;5052157;28;20061;-77
2022/10/12 07:27:35;;;;;;;18.38;10.95;;;8.20;99.90;;;;;;5052457;28;20086;-77
2022/10/12 07:30:01;;;;;;;16.88;10.15;;;8.20;99.90;;;;;;5059838;28;20020;-76
2022/10/12 07:32:26;;;;;;;17.90;9.82;;;8.20;99.90;;;;;;5059471;28;20109;-76
2022/10/12 07:34:52;;;;;;;33.53;12.52;;;8.20;99.90;;;;;;5052894;28;20128;-76
2022/10/12 07:37:20;;;;;;;19.77;11.02;;;8.20;99.90;;;;;;5052151;28;20013;-76
2022/10/12 07:39:46;;;;;;;27.95;11.60;;;8.20;99.90;;;;;;5052925;28;20082;-76
2022/10/12 07:42:11;;;;;;;22.77;10.85;;;8.10;99.90;;;;;;5052969;28;20017;-77
2022/10/12 07:44:37;;;;;;;25.10;11.10;;;8.20;99.90;;;;;;5052007;28;20024;-76
2022/10/12 07:47:03;;;;;;;19.80;10.85;;;8.10;99.90;;;;;;5052599;28;20366;-76
2022/10/12 07:49:28;;;;;;;25.13;11.30;;;8.10;99.90;;;;;;5058197;28;20073;-76
2022/10/12 07:51:54;;;;;;;24.35;11.30;;;8.10;99.90;;;;;;5069609;28;20025;-74
2022/10/12 07:54:20;;;;;;;24.48;11.20;;;8.00;99.90;;;;;;5062126;28;20131;-78
2022/10/12 07:56:45;;;;;;;18.63;11.02;;;8.10;99.90;;;;;;5070383;28;20381;-80
2022/10/12 07:59:11;;;;;;;22.27;12.23;;;8.10;99.90;;;;;;5070985;28;20491;-78
2022/10/12 08:01:37;;;;;;;25.95;12.65;;;8.10;99.90;;;;;;5057669;28;20025;-78
2022/10/12 08:04:03;;;;;;;30.00;11.63;;;8.20;99.90;;;;;;5053105;28;20020;-77
2022/10/12 08:06:31;;;;;;;31.70;11.95;;;8.20;99.90;;;;;;5063719;28;20073;-79
2022/10/12 08:08:58;;;;;;;26.30;11.95;;;8.30;99.90;;;;;;5069049;28;20021;-78
2022/10/12 08:11:24;;;;;;;31.38;14.25;;;8.40;99.90;;;;;;5072331;28;20082;-79
2022/10/12 08:13:49;;;;;;;23.38;11.77;;;8.50;99.90;;;;;;5071825;28;20036;-79
2022/10/12 08:16:18;;;;;;;29.92;12.20;;;8.60;99.90;;;;;;5065676;28;20032;-80
2022/10/12 08:18:44;;;;;;;36.42;13.20;;;8.60;99.90;;;;;;5060721;28;20091;-79
2022/10/12 08:21:11;;;;;;;24.67;11.57;;;8.70;99.90;;;;;;5051620;28;20021;-79
2022/10/12 08:23:37;;;;;;;19.67;11.75;;;8.80;99.90;;;;;;5051861;28;20388;-80
2022/10/12 08:26:04;;;;;;;21.38;11.75;;;8.80;99.90;;;;;;5064275;28;20040;-80
2022/10/12 08:28:30;;;;;;;19.45;11.48;;;8.90;99.90;;;;;;5054826;28;20021;-81
2022/10/12 08:30:55;;;;;;;25.65;10.93;;;8.90;99.90;;;;;;5064625;28;20259;-78
2022/10/12 08:33:21;;;;;;;25.17;12.07;;;9.00;99.90;;;;;;5060903;28;20373;-79
2022/10/12 08:35:48;;;;;;;19.13;10.80;;;9.10;99.90;;;;;;5065616;28;20028;-76
2022/10/12 08:38:14;;;;;;;21.00;11.07;;;9.10;99.90;;;;;;5065674;28;20086;-78
2022/10/12 08:40:52;;;;;;;19.95;11.82;;;9.20;99.90;;;;;;5065788;28;20546;-82
2022/10/12 08:43:29;;;;;;;24.05;10.57;;;9.30;99.90;;;;;;5064966;28;20048;-80
2022/10/12 08:45:57;;;;;;;29.10;11.88;;;9.30;99.90;;;;;;5066212;28;20031;-83
2022/10/12 08:48:55;;;;;;;18.48;10.32;;;9.40;99.90;;;;;;5061200;28;20021;-83
2022/10/12 08:51:26;;;;;;;20.73;10.90;;;9.50;99.90;;;;;;5065707;28;20127;-84
2022/10/12 08:54:05;;;;;;;18.80;10.55;;;9.60;99.90;;;;;;5062227;28;20040;-84
2022/10/12 08:56:33;;;;;;;17.05;10.55;;;9.60;99.90;;;;;;5065709;28;20469;-73
2022/10/12 08:59:01;;;;;;;21.15;11.18;;;9.70;99.90;;;;;;5081595;28;20027;-83
2022/10/12 09:01:37;;;;;;;20.27;11.20;;;9.80;99.90;;;;;;5085214;28;20020;-83
2022/10/12 09:04:39;;;;;;;19.38;10.80;;;9.80;99.90;;;;;;5077490;28;20053;-86
2022/10/12 09:07:18;;;;;;;25.73;11.23;;;9.90;99.90;;;;;;5083659;28;20020;-85
2022/10/12 09:10:05;;;;;;;17.50;10.10;;;9.90;99.90;;;;;;5088776;28;20037;-87
2022/10/12 09:13:06;;;;;;;18.83;11.13;;;9.90;99.90;;;;;;5079493;28;20016;-86
2022/10/12 09:15:52;;;;;;;19.45;10.38;;;10.00;99.90;;;;;;4999754;28;20086;-86
2022/10/12 09:18:24;;;;;;;23.38;11.60;;;10.00;99.90;;;;;;5075775;28;20028;-86
2022/10/12 09:20:51;;;;;;;18.25;10.95;;;10.20;99.90;;;;;;5076985;28;20044;-86
2022/10/12 09:23:24;;;;;;;27.40;12.15;;;10.20;99.90;;;;;;5072530;28;20264;-83
2022/10/12 09:25:52;;;;;;;23.48;11.32;;;10.30;99.90;;;;;;5071701;28;20065;-85
2022/10/12 09:28:32;;;;;;;19.77;10.82;;;10.40;99.90;;;;;;5071125;28;20381;-86
2022/10/12 09:31:24;;;;;;;19.00;10.33;;;10.40;99.90;;;;;;5062131;28;20025;-83
2022/10/12 09:34:02;;;;;;;24.13;11.52;;;10.50;99.90;;;;;;5069212;28;20036;-86
2022/10/12 09:36:33;;;;;;;24.92;12.98;;;10.60;99.90;;;;;;5064656;28;20104;-84
2022/10/12 09:39:01;;;;;;;20.17;11.73;;;10.70;99.90;;;;;;5054499;28;20029;-84
2022/10/12 09:41:40;;;;;;;21.33;11.77;;;10.80;99.90;;;;;;5054173;28;20071;-85
2022/10/12 09:44:06;;;;;;;19.25;11.82;;;10.90;99.90;;;;;;5055433;28;20036;-87
2022/10/12 09:46:38;;;;;;;22.40;10.82;;;11.00;99.90;;;;;;5056262;28;20025;-86
2022/10/12 09:49:04;;;;;;;20.73;11.27;;;11.10;99.90;;;;;;5056637;28;20028;-87
2022/10/12 09:51:31;;;;;;;22.98;11.55;;;11.10;99.90;;;;;;5060876;28;20021;-86
2022/10/12 09:54:02;;;;;;;20.48;10.98;;;11.20;99.90;;;;;;5059874;28;20037;-77
2022/10/12 09:56:48;;;;;;;17.55;11.10;;;11.30;99.90;;;;;;5070405;28;20020;-84
2022/10/12 09:59:26;;;;;;;20.23;10.52;;;11.40;99.90;;;;;;5071057;28;20020;-79
2022/10/12 10:02:09;;;;;;;16.88;9.20;;;11.40;99.90;;;;;;5070174;28;20477;-85
2022/10/12 10:04:36;;;;;;;14.52;9.57;;;11.40;99.90;;;;;;5064711;28;20052;-85
2022/10/12 10:07:33;;;;;;;19.27;10.38;;;11.40;99.90;;;;;;5057706;28;20071;-84
2022/10/12 10:10:14;;;;;;;16.05;9.40;;;11.60;99.90;;;;;;5045642;28;20041;-83
2022/10/12 10:12:46;;;;;;;;;;;11.60;99.90;;;;;;5072134;28;20048;-82
2022/10/12 10:15:20;;;;;;;13.30;9.20;;;11.70;99.90;;;;;;5083862;28;20355;-80
2022/10/12 10:17:52;;;;;;;18.25;10.80;;;11.80;99.90;;;;;;5092368;28;20017;-84
2022/10/12 10:20:30;;;;;;;14.35;9.27;;;11.90;99.90;;;;;;5075658;28;20020;-83
2022/10/12 10:22:57;;;;;;;22.50;10.82;;;12.00;99.90;;;;;;5058801;28;20032;-81
2022/10/12 10:25:23;;;;;;;18.27;8.63;;;12.00;99.90;;;;;;5065395;28;20087;-84
2022/10/12 10:28:08;;;;;;;15.65;9.73;;;12.00;99.90;;;;;;5064730;28;20475;-86
2022/10/12 10:30:33;;;;;;;20.85;10.57;;;12.10;99.90;;;;;;5059797;28;20033;-87
2022/10/12 10:33:33;;;;;;;16.30;9.73;;;12.10;99.90;;;;;;5075199;28;20067;-84
2022/10/12 10:36:14;;;;;;;22.25;10.30;;;12.30;99.90;;;;;;5038428;28;20104;-85
2022/10/12 10:38:53;;;;;;;22.10;10.88;;;12.30;99.90;;;;;;5060594;28;20021;-85
2022/10/12 10:41:19;;;;;;;18.15;9.25;;;12.40;99.90;;;;;;5068294;28;20033;-84
2022/10/12 10:43:48;;;;;;;19.45;10.20;;;12.50;99.90;;;;;;5057617;28;20033;-84
2022/10/12 10:46:26;;;;;;;17.52;10.23;;;12.60;99.90;;;;;;5069767;28;20029;-77
2022/10/12 10:48:57;;;;;;;17.70;9.98;;;12.70;99.90;;;;;;5083177;28;20056;-83
2022/10/12 10:51:40;;;;;;;21.17;11.43;;;12.70;99.90;;;;;;5076383;28;20024;-83
2022/10/12 10:54:24;;;;;;;22.75;10.68;;;12.70;99.90;;;;;;5074302;28;20043;-83
2022/10/12 10:57:12;;;;;;;22.13;10.32;;;12.80;99.90;;;;;;5075429;28;20021;-84
2022/10/12 10:59:49;;;;;;;20.85;10.65;;;12.90;99.90;;;;;;5062498;28;20094;-83
2022/10/12 11:02:39;;;;;;;19.52;11.75;;;12.80;99.90;;;;;;5057608;28;20443;-84
2022/10/12 11:05:11;;;;;;;20.02;11.70;;;12.90;99.90;;;;;;5062623;28;20591;-84
2022/10/12 11:07:43;;;;;;;23.95;13.23;;;12.90;99.90;;;;;;5065286;28;20035;-82
2022/10/12 11:10:22;;;;;;;27.80;13.80;;;13.00;99.90;;;;;;5067894;28;20361;-84
2022/10/12 11:12:56;;;;;;;30.70;15.57;;;13.10;99.90;;;;;;5065179;28;20025;-83
2022/10/12 11:15:33;;;;;;;27.58;15.20;;;13.20;99.90;;;;;;5070457;28;20037;-85
2022/10/12 11:18:26;;;;;;;25.98;13.82;;;13.30;99.90;;;;;;5067288;28;20491;-85
2022/10/12 11:21:00;;;;;;;25.48;13.45;;;13.50;99.90;;;;;;5070009;28;20044;-86
2022/10/12 11:23:47;;;;;;;22.33;13.63;;;13.60;99.90;;;;;;5071911;28;20028;-85
2022/10/12 11:26:28;;;;;;;27.13;12.65;;;13.80;99.90;;;;;;5071726;28;20505;-85
2022/10/12 11:28:58;;;;;;;33.90;13.43;;;13.90;99.90;;;;;;5072590;28;20082;-85
2022/10/12 11:31:30;;;;;;;23.02;12.98;;;14.10;99.90;;;;;;5086920;28;20063;-85
2022/10/12 11:33:59;;;;;;;20.25;12.10;;;14.20;99.90;;;;;;5075216;28;20040;-84
2022/10/12 11:36:27;;;;;;;27.38;13.07;;;14.30;99.90;;;;;;5075807;28;20108;-84
2022/10/12 11:39:02;;;;;;;27.38;12.90;;;14.40;99.90;;;;;;5075084;28;20020;-83
2022/10/12 11:41:47;;;;;;;24.52;13.45;;;14.50;99.90;;;;;;5075707;28;20029;-86
2022/10/12 11:44:28;;;;;;;22.50;12.07;;;14.50;99.90;;;;;;5081138;28;20035;-86
2022/10/12 11:47:09;;;;;;;20.17;11.48;;;14.60;99.90;;;;;;5077457;28;20080;-85
2022/10/12 11:49:56;;;;;;;19.30;11.32;;;14.70;99.90;;;;;;5079030;28;20093;-86
2022/10/12 11:52:25;;;;;;;18.00;10.05;;;14.70;99.90;;;;;;5083826;28;20017;-86
2022/10/12 11:55:10;;;;;;;15.52;9.73;;;14.80;99.90;;;;;;5065535;28;20078;-87
2022/10/12 11:57:36;;;;;;;15.35;9.63;;;14.70;99.90;;;;;;5071558;28;20029;-85
2022/10/12 12:00:26;;;;;;;13.60;9.85;;;14.70;99.90;;;;;;5075227;28;20025;-86
2022/10/12 12:03:10;;;;;;;22.77;11.10;;;14.80;99.90;;;;;;5084161;28;20029;-86
2022/10/12 12:05:36;;;;;;;19.15;11.35;;;14.80;99.90;;;;;;5064183;28;20028;-85
2022/10/12 12:08:02;;;;;;;19.13;10.63;;;14.80;99.90;;;;;;5077257;28;20055;-85
2022/10/12 12:10:30;;;;;;;18.98;11.27;;;14.80;99.90;;;;;;5063213;28;20043;-85
2022/10/12 12:13:13;;;;;;;13.63;10.05;;;14.90;99.90;;;;;;5065092;28;20060;-87
2022/10/12 12:15:41;;;;;;;23.88;12.18;;;14.90;99.90;;;;;;5075086;28;20032;-86
2022/10/12 12:18:13;;;;;;;23.27;13.10;;;14.80;99.90;;;;;;5067974;28;20067;-86
2022/10/12 12:20:41;;;;;;;20.85;12.93;;;14.80;99.90;;;;;;5066149;28;20016;-86
2022/10/12 12:23:25;;;;;;;25.17;13.48;;;14.80;99.90;;;;;;5061359;28;20021;-85
2022/10/12 12:26:09;;;;;;;29.48;14.82;;;14.80;99.90;;;;;;5059778;28;20357;-86
2022/10/12 12:28:41;;;;;;;29.73;15.00;;;14.90;99.90;;;;;;5068388;28;20032;-87
2022/10/12 12:31:15;;;;;;;26.05;13.82;;;15.00;99.90;;;;;;5072828;28;20020;-86
2022/10/12 12:33:48;;;;;;;37.05;15.27;;;15.10;99.90;;;;;;5072449;28;20070;-85
2022/10/12 12:36:39;;;;;;;22.60;15.23;;;15.10;99.90;;;;;;5088671;28;20076;-85
2022/10/12 12:39:19;;;;;;;26.77;14.48;;;15.20;99.90;;;;;;5089837;28;20088;-85
2022/10/12 12:41:47;;;;;;;25.58;13.70;;;15.20;99.90;;;;;;5071657;28;20029;-86
2022/10/12 12:44:31;;;;;;;23.45;14.48;;;15.20;99.90;;;;;;5062660;28;20019;-86
2022/10/12 12:46:57;;;;;;;21.92;13.70;;;15.20;99.90;;;;;;5070117;28;20032;-86
2022/10/12 12:49:37;;;;;;;25.75;14.23;;;15.20;99.90;;;;;;5077887;28;20038;-86
2022/10/12 12:52:16;;;;;;;25.35;13.75;;;15.20;99.90;;;;;;5071253;28;20024;-84
2022/10/12 12:54:52;;;;;;;24.10;13.07;;;15.30;99.90;;;;;;5068953;28;20095;-86
2022/10/12 12:57:17;;;;;;;25.38;13.88;;;15.30;99.90;;;;;;5071897;28;20052;-87
2022/10/12 12:59:55;;;;;;;23.90;14.00;;;15.10;99.90;;;;;;5072111;28;20585;-86